Terminal Aerodrome Forecast
Issued by NWS Tampa Bay Area, FL

Home | Current Version | Previous Version | Text Only | Print | Product List | Glossary On
Versions: 1 2 3 4 5 6 7 8 9 10 11
839
FTUS42 KTBW 270531
TAFSRQ
TAF
KSRQ 270531Z 2706/2806 11005KT P6SM BKN050
     FM270900 11004KT P6SM FEW050
     FM271400 12006KT P6SM FEW035
     FM271700 24008KT P6SM SCT040
     FM271900 28009KT P6SM SCT050
     FM280100 VRB05KT P6SM SCT060=

USA.gov is the U.S. government's official web portal to all federal, state and local government web resources and services.